Time;durP1;ratioP1;P1;durP2;ratioP2;P2;SDS_P1;SDS_P2;PMS_P1;PMS_P2;Temp;Humidity;BMP_temperature;BMP_pressure;BME280_temperature;BME280_humidity;BME280_pressure;Samples;Min_cycle;Max_cycle;Signal;HPM_P1;HPM_P2
2020/12/08 00:01:50;;;;;;;0.67;0.67;;;4.80;99.90;;;;;;5059851;28;20735;-79
2020/12/08 00:04:16;;;;;;;0.43;0.43;;;4.90;99.90;;;;;;5057237;28;20535;-78
2020/12/08 00:06:41;;;;;;;0.57;0.57;;;4.90;99.90;;;;;;5075456;28;20182;-78
2020/12/08 00:09:07;;;;;;;0.47;0.47;;;4.80;99.90;;;;;;5075435;28;20185;-78
2020/12/08 00:11:32;;;;;;;2.07;1.97;;;4.80;99.90;;;;;;5075277;28;20532;-78
2020/12/08 00:13:58;;;;;;;0.57;0.53;;;4.70;99.90;;;;;;5056924;28;20638;-78
2020/12/08 00:16:24;;;;;;;0.60;0.60;;;4.60;99.90;;;;;;5075494;28;20672;-80
2020/12/08 00:18:49;;;;;;;0.30;0.30;;;4.50;99.90;;;;;;5075279;28;20167;-77
2020/12/08 00:21:16;;;;;;;0.30;0.30;;;4.60;99.90;;;;;;5057172;28;20186;-79
2020/12/08 00:23:42;;;;;;;0.57;0.57;;;4.60;99.90;;;;;;5075025;28;20695;-80
2020/12/08 00:26:07;;;;;;;1.00;1.00;;;4.60;99.90;;;;;;5056871;28;20179;-80
2020/12/08 00:28:34;;;;;;;1.00;1.00;;;4.70;99.90;;;;;;5066354;28;20174;-78
2020/12/08 00:31:00;;;;;;;2.23;2.13;;;4.70;99.90;;;;;;5095008;28;20197;-80
2020/12/08 00:33:25;;;;;;;1.67;0.93;;;4.80;99.90;;;;;;5076860;28;20173;-79
2020/12/08 00:35:51;;;;;;;1.43;1.33;;;4.80;99.90;;;;;;5098312;28;20166;-76
2020/12/08 00:38:16;;;;;;;0.33;0.27;;;4.80;99.90;;;;;;5080898;28;20261;-76
2020/12/08 00:40:41;;;;;;;0.73;0.73;;;4.80;99.90;;;;;;5099750;28;20186;-76
2020/12/08 00:43:07;;;;;;;1.23;1.23;;;4.80;99.90;;;;;;5080849;28;20517;-76
2020/12/08 00:45:33;;;;;;;1.23;1.13;;;4.80;99.90;;;;;;5099067;28;20158;-76
2020/12/08 00:47:59;;;;;;;0.63;0.63;;;4.80;99.90;;;;;;5098975;28;20169;-76
2020/12/08 00:50:24;;;;;;;0.53;0.53;;;4.80;99.90;;;;;;5079788;28;20285;-76
2020/12/08 00:52:50;;;;;;;1.60;1.50;;;4.80;99.90;;;;;;5078947;28;20522;-76
2020/12/08 00:55:15;;;;;;;0.47;0.47;;;4.80;99.90;;;;;;5078791;28;20162;-76
2020/12/08 00:57:41;;;;;;;0.20;0.20;;;4.80;99.90;;;;;;5078952;28;20263;-76
2020/12/08 01:00:06;;;;;;;0.10;0.10;;;4.80;99.90;;;;;;5080639;28;20173;-76
2020/12/08 01:02:32;;;;;;;1.43;1.33;;;4.80;99.90;;;;;;5099152;28;20150;-77
2020/12/08 01:04:58;;;;;;;0.37;0.37;;;4.80;99.90;;;;;;5098937;28;20166;-76
2020/12/08 01:07:23;;;;;;;1.37;1.33;;;4.80;99.90;;;;;;5099004;28;20159;-76
2020/12/08 01:09:49;;;;;;;0.60;0.60;;;4.80;99.90;;;;;;5080714;28;20170;-78
2020/12/08 01:12:14;;;;;;;0.47;0.47;;;4.80;99.90;;;;;;5098482;28;20170;-76
2020/12/08 01:14:40;;;;;;;0.97;0.97;;;4.80;99.90;;;;;;5081041;28;20173;-76
2020/12/08 01:17:06;;;;;;;0.70;0.70;;;4.80;99.90;;;;;;5080505;28;20198;-76
2020/12/08 01:19:31;;;;;;;0.60;0.60;;;4.70;99.90;;;;;;5082943;28;20337;-76
2020/12/08 01:21:57;;;;;;;0.27;0.27;;;4.70;99.90;;;;;;5078695;28;20266;-76
2020/12/08 01:24:22;;;;;;;0.77;0.77;;;4.60;99.90;;;;;;5076116;28;20197;-76
2020/12/08 01:26:48;;;;;;;1.30;1.00;;;4.60;99.90;;;;;;5077258;28;20171;-76
2020/12/08 01:29:14;;;;;;;0.50;0.50;;;4.70;99.90;;;;;;5078221;28;20166;-76
2020/12/08 01:31:40;;;;;;;0.60;0.60;;;4.60;99.90;;;;;;5078656;28;20235;-76
2020/12/08 01:34:07;;;;;;;0.37;0.37;;;4.60;99.90;;;;;;5065636;28;20642;-76
2020/12/08 01:36:33;;;;;;;2.80;1.43;;;4.50;99.90;;;;;;5078872;28;20190;-76
2020/12/08 01:38:59;;;;;;;0.27;0.27;;;4.50;99.90;;;;;;5060221;28;20166;-76
2020/12/08 01:41:24;;;;;;;0.77;0.77;;;4.50;99.90;;;;;;5078801;28;20209;-76
2020/12/08 01:43:51;;;;;;;1.27;1.17;;;4.50;99.90;;;;;;5060490;28;20171;-76
2020/12/08 01:46:20;;;;;;;0.43;0.43;;;4.60;99.90;;;;;;5060357;28;20208;-76
2020/12/08 01:48:49;;;;;;;0.70;0.70;;;4.60;99.90;;;;;;5078124;28;20201;-76
2020/12/08 01:51:19;;;;;;;1.73;1.43;;;4.60;99.90;;;;;;5076689;28;20670;-76
2020/12/08 01:53:50;;;;;;;0.83;0.83;;;4.60;99.90;;;;;;5074280;28;20166;-78
2020/12/08 01:56:17;;;;;;;2.13;1.70;;;4.60;99.90;;;;;;5055388;28;20669;-78
2020/12/08 01:58:42;;;;;;;0.50;0.50;;;4.60;99.90;;;;;;5072253;28;20210;-78
2020/12/08 02:01:11;;;;;;;1.57;1.47;;;4.60;99.90;;;;;;5073504;28;20717;-77
2020/12/08 02:03:37;;;;;;;0.23;0.23;;;4.70;99.90;;;;;;5073498;28;20174;-78
2020/12/08 02:06:03;;;;;;;0.60;0.60;;;4.70;99.90;;;;;;5073405;28;20175;-78
2020/12/08 02:08:34;;;;;;;2.20;1.10;;;4.70;99.90;;;;;;5055375;28;20239;-77
2020/12/08 02:10:59;;;;;;;0.33;0.33;;;4.70;99.90;;;;;;5073890;28;20198;-78
2020/12/08 02:13:26;;;;;;;0.23;0.23;;;4.80;99.90;;;;;;5055405;28;20179;-78
2020/12/08 02:15:52;;;;;;;0.73;0.73;;;4.80;99.90;;;;;;5055360;28;20178;-78
2020/12/08 02:18:19;;;;;;;0.90;0.43;;;4.80;99.90;;;;;;5073251;28;20167;-78
2020/12/08 02:20:44;;;;;;;1.03;0.90;;;4.90;99.90;;;;;;5072227;28;20563;-77
2020/12/08 02:23:11;;;;;;;0.43;0.40;;;4.90;99.90;;;;;;5071970;28;20167;-78
2020/12/08 02:25:41;;;;;;;1.30;0.87;;;4.90;99.90;;;;;;5072135;28;20669;-77
2020/12/08 02:28:07;;;;;;;1.40;0.97;;;5.00;99.90;;;;;;5090451;28;20173;-78
2020/12/08 02:30:32;;;;;;;0.47;0.47;;;5.00;99.90;;;;;;5073179;28;20205;-78
2020/12/08 02:32:58;;;;;;;0.93;0.93;;;5.00;99.90;;;;;;5073095;28;20182;-78
2020/12/08 02:35:23;;;;;;;0.50;0.50;;;5.00;99.90;;;;;;5073866;28;20171;-78
2020/12/08 02:37:49;;;;;;;0.10;0.10;;;4.90;99.90;;;;;;5059192;28;20653;-77
2020/12/08 02:40:14;;;;;;;0.30;0.30;;;4.90;99.90;;;;;;5077407;28;20190;-78
2020/12/08 02:42:40;;;;;;;2.17;0.77;;;4.90;99.90;;;;;;5059112;28;20206;-78
2020/12/08 02:45:06;;;;;;;1.33;0.90;;;4.90;99.90;;;;;;5077313;28;20530;-78
2020/12/08 02:47:32;;;;;;;0.87;0.87;;;4.90;99.90;;;;;;5059090;28;20179;-77
2020/12/08 02:49:57;;;;;;;0.40;0.40;;;4.80;99.90;;;;;;5076910;28;20167;-78
2020/12/08 02:52:23;;;;;;;0.20;0.20;;;4.80;99.90;;;;;;5058781;28;20182;-78
2020/12/08 02:54:49;;;;;;;0.97;0.97;;;4.80;99.90;;;;;;5076878;28;20178;-78
2020/12/08 02:57:15;;;;;;;0.43;0.40;;;4.80;99.90;;;;;;5076712;28;20191;-78
2020/12/08 02:59:40;;;;;;;0.00;0.00;;;4.80;99.90;;;;;;5058741;28;20649;-78
2020/12/08 03:02:06;;;;;;;1.47;0.93;;;4.80;99.90;;;;;;5058643;28;20278;-77
2020/12/08 03:04:31;;;;;;;0.60;0.60;;;4.80;99.90;;;;;;5076690;28;20188;-78
2020/12/08 03:06:57;;;;;;;0.90;0.90;;;4.70;99.90;;;;;;5076662;28;20220;-78
2020/12/08 03:09:22;;;;;;;0.63;0.63;;;4.60;99.90;;;;;;5076595;28;20179;-77
2020/12/08 03:11:48;;;;;;;0.50;0.37;;;4.70;99.90;;;;;;5061026;28;20194;-77
2020/12/08 03:14:14;;;;;;;1.07;1.07;;;4.70;99.90;;;;;;5076546;28;20178;-78
2020/12/08 03:16:39;;;;;;;1.47;1.37;;;4.60;99.90;;;;;;5076368;28;20195;-78
2020/12/08 03:19:05;;;;;;;0.77;0.77;;;4.60;99.90;;;;;;5075114;28;20194;-78
2020/12/08 03:21:35;;;;;;;1.23;1.23;;;4.60;99.90;;;;;;5075024;28;20708;-77
2020/12/08 03:24:01;;;;;;;0.30;0.30;;;4.60;99.90;;;;;;5076333;28;20163;-78
2020/12/08 03:26:27;;;;;;;0.63;0.63;;;4.60;99.90;;;;;;5076684;28;20644;-78
2020/12/08 03:28:53;;;;;;;0.20;0.20;;;4.60;99.90;;;;;;5083496;28;20189;-78
2020/12/08 03:31:19;;;;;;;0.93;0.93;;;4.60;99.90;;;;;;5096310;28;20666;-78
2020/12/08 03:33:45;;;;;;;1.90;1.10;;;4.70;99.90;;;;;;5082281;28;20178;-78
2020/12/08 03:36:11;;;;;;;0.30;0.30;;;4.70;99.90;;;;;;5076128;28;20232;-77
2020/12/08 03:38:37;;;;;;;0.97;0.77;;;4.70;99.90;;;;;;5076362;28;20623;-78
2020/12/08 03:41:03;;;;;;;2.87;0.80;;;4.70;99.90;;;;;;5075900;28;20186;-78
2020/12/08 03:43:28;;;;;;;0.00;0.00;;;4.70;99.90;;;;;;5084849;28;20182;-78
2020/12/08 03:45:54;;;;;;;0.73;0.70;;;4.60;99.90;;;;;;5096098;28;20173;-78
2020/12/08 03:48:19;;;;;;;0.57;0.40;;;4.50;99.90;;;;;;5077121;28;20170;-78
2020/12/08 03:50:45;;;;;;;0.97;0.90;;;4.50;99.90;;;;;;5077830;28;20646;-78
2020/12/08 03:53:10;;;;;;;0.40;0.40;;;4.50;99.90;;;;;;5086803;28;20242;-78
2020/12/08 03:55:36;;;;;;;0.47;0.47;;;4.60;99.90;;;;;;5075699;28;20220;-78
2020/12/08 03:58:01;;;;;;;0.43;0.40;;;4.50;99.90;;;;;;5076854;28;20566;-79
2020/12/08 04:00:27;;;;;;;0.60;0.60;;;4.60;99.90;;;;;;5075465;28;20281;-79
2020/12/08 04:02:52;;;;;;;0.60;0.60;;;4.70;99.90;;;;;;5076024;28;20213;-78
2020/12/08 04:05:18;;;;;;;0.37;0.37;;;4.70;99.90;;;;;;5074246;28;20263;-79
2020/12/08 04:07:46;;;;;;;0.30;0.30;;;4.70;99.90;;;;;;5075702;28;20573;-79
2020/12/08 04:10:11;;;;;;;0.37;0.37;;;4.70;99.90;;;;;;5074336;28;20585;-78
2020/12/08 04:12:37;;;;;;;0.37;0.20;;;4.70;99.90;;;;;;5073991;28;20186;-79
2020/12/08 04:15:03;;;;;;;0.70;0.70;;;4.70;99.90;;;;;;5091789;28;20185;-79
2020/12/08 04:17:28;;;;;;;2.27;1.47;;;4.70;99.90;;;;;;5095377;28;20190;-78
2020/12/08 04:19:54;;;;;;;0.80;0.80;;;4.70;99.90;;;;;;5077273;28;20187;-78
2020/12/08 04:22:19;;;;;;;0.73;0.60;;;4.70;99.90;;;;;;5095956;28;20244;-78
2020/12/08 04:24:45;;;;;;;4.23;1.37;;;4.60;99.90;;;;;;5095677;28;20547;-78
2020/12/08 04:27:10;;;;;;;4.73;2.47;;;4.70;99.90;;;;;;5077102;28;20178;-79
2020/12/08 04:29:36;;;;;;;0.90;0.90;;;4.80;99.90;;;;;;5095161;28;20166;-79
2020/12/08 04:32:01;;;;;;;1.03;1.03;;;4.70;99.90;;;;;;5095073;28;20197;-78
2020/12/08 04:34:27;;;;;;;0.30;0.30;;;4.80;99.90;;;;;;5094893;28;20248;-79
2020/12/08 04:36:52;;;;;;;1.20;1.20;;;4.90;99.90;;;;;;5088076;28;20241;-79
2020/12/08 04:39:18;;;;;;;0.67;0.67;;;4.90;99.90;;;;;;5056992;28;20188;-79
2020/12/08 04:41:43;;;;;;;1.20;0.80;;;4.90;99.90;;;;;;5074703;28;20684;-79
2020/12/08 04:44:10;;;;;;;0.47;0.47;;;4.90;99.90;;;;;;5070368;28;20756;-79
2020/12/08 04:46:38;;;;;;;1.90;1.77;;;4.90;99.90;;;;;;5056730;28;20177;-79
2020/12/08 04:49:03;;;;;;;1.73;1.63;;;4.90;99.90;;;;;;5074633;28;20163;-79
2020/12/08 04:51:29;;;;;;;1.00;1.00;;;4.90;99.90;;;;;;5074448;28;20527;-79
2020/12/08 04:53:55;;;;;;;0.20;0.20;;;4.90;99.90;;;;;;5074617;28;20178;-79
2020/12/08 04:56:20;;;;;;;0.03;0.03;;;4.90;99.90;;;;;;5074478;28;20539;-79
2020/12/08 04:58:46;;;;;;;1.13;1.03;;;4.90;99.90;;;;;;5056584;28;20657;-79
2020/12/08 05:01:44;;;;;;;1.33;1.23;;;4.90;99.90;;;;;;5056399;28;20206;-80
2020/12/08 05:04:09;;;;;;;0.23;0.23;;;5.00;99.90;;;;;;5054805;28;20668;-78
2020/12/08 05:06:36;;;;;;;0.47;0.47;;;4.90;99.90;;;;;;5081394;28;20167;-76
2020/12/08 05:09:04;;;;;;;0.30;0.30;;;4.90;99.90;;;;;;5099411;28;20174;-76
2020/12/08 05:11:30;;;;;;;0.97;0.83;;;4.90;99.90;;;;;;5081421;28;20186;-76
2020/12/08 05:13:59;;;;;;;0.67;0.60;;;4.90;99.90;;;;;;5100073;28;20692;-76
2020/12/08 05:16:26;;;;;;;1.37;1.13;;;4.90;99.90;;;;;;5098864;28;20186;-77
2020/12/08 05:18:51;;;;;;;0.70;0.70;;;4.90;99.90;;;;;;5100066;28;20689;-76
2020/12/08 05:21:17;;;;;;;0.83;0.80;;;5.00;99.90;;;;;;5080503;28;20189;-76
2020/12/08 05:23:43;;;;;;;1.97;1.43;;;5.00;99.90;;;;;;5098670;28;20170;-76
2020/12/08 05:26:11;;;;;;;1.10;1.00;;;5.10;99.90;;;;;;5097686;28;20629;-76
2020/12/08 05:28:37;;;;;;;1.17;1.17;;;5.10;99.90;;;;;;5073090;28;20257;-76
2020/12/08 05:31:03;;;;;;;0.30;0.30;;;5.10;99.90;;;;;;5081430;28;20722;-76
2020/12/08 05:33:29;;;;;;;1.47;1.07;;;5.10;99.90;;;;;;5099241;28;20196;-76
2020/12/08 05:35:59;;;;;;;0.30;0.30;;;5.10;99.90;;;;;;5080537;28;20622;-76
2020/12/08 05:38:35;;;;;;;0.80;0.80;;;5.10;99.90;;;;;;5099407;28;20601;-76
2020/12/08 05:41:03;;;;;;;0.87;0.87;;;5.10;99.90;;;;;;5081646;28;20208;-76
2020/12/08 05:43:47;;;;;;;1.47;1.03;;;5.00;99.90;;;;;;5095369;28;20222;-76
2020/12/08 05:46:14;;;;;;;0.93;0.93;;;5.00;99.90;;;;;;5060586;28;20167;-76
2020/12/08 05:48:40;;;;;;;0.93;0.93;;;5.00;99.90;;;;;;5078426;28;20626;-76
2020/12/08 05:51:07;;;;;;;2.00;1.00;;;4.90;99.90;;;;;;5078851;28;20202;-76
2020/12/08 05:53:33;;;;;;;1.67;1.17;;;4.90;99.90;;;;;;5078372;28;20273;-76
2020/12/08 05:56:17;;;;;;;1.37;1.27;;;5.00;99.90;;;;;;5078705;28;20261;-76
2020/12/08 05:58:42;;;;;;;1.20;0.97;;;5.00;99.90;;;;;;5078349;28;20159;-76
2020/12/08 06:01:08;;;;;;;0.60;0.60;;;5.00;99.90;;;;;;5059865;28;20210;-76
2020/12/08 06:03:35;;;;;;;3.10;1.10;;;5.00;99.90;;;;;;5076790;28;20186;-76
2020/12/08 06:06:08;;;;;;;0.47;0.47;;;5.00;99.90;;;;;;5094668;28;20170;-76
2020/12/08 06:08:47;;;;;;;0.70;0.70;;;5.00;99.90;;;;;;5093450;28;20183;-75
2020/12/08 06:11:14;;;;;;;1.37;1.00;;;5.00;99.90;;;;;;5076183;28;20686;-76
2020/12/08 06:13:49;;;;;;;0.17;0.17;;;5.00;99.90;;;;;;5074761;28;20218;-76
2020/12/08 06:16:20;;;;;;;0.50;0.50;;;5.10;99.90;;;;;;5074060;28;20208;-79
2020/12/08 06:18:47;;;;;;;1.20;0.77;;;5.00;99.90;;;;;;5055728;28;20201;-78
2020/12/08 06:21:22;;;;;;;0.33;0.33;;;5.10;99.90;;;;;;5055686;28;20194;-79
2020/12/08 06:23:49;;;;;;;0.60;0.47;;;5.20;99.90;;;;;;5073658;28;20159;-78
2020/12/08 06:26:24;;;;;;;0.53;0.53;;;5.30;99.90;;;;;;5073182;28;20178;-82
2020/12/08 06:28:50;;;;;;;0.23;0.23;;;5.20;99.90;;;;;;5066637;28;20664;-78
2020/12/08 06:31:16;;;;;;;1.13;0.80;;;5.20;99.90;;;;;;5056047;28;20194;-81
2020/12/08 06:33:55;;;;;;;0.40;0.40;;;5.20;99.90;;;;;;5073297;28;20174;-81
2020/12/08 06:36:23;;;;;;;1.13;1.10;;;5.20;99.90;;;;;;5055098;28;20198;-81
2020/12/08 06:39:05;;;;;;;0.73;0.73;;;5.20;99.90;;;;;;5055222;28;20680;-81
2020/12/08 06:41:39;;;;;;;0.77;0.77;;;5.20;99.90;;;;;;5055245;28;20221;-79
2020/12/08 06:44:11;;;;;;;0.60;0.60;;;5.20;99.90;;;;;;5075104;28;20193;-81
2020/12/08 06:46:36;;;;;;;0.70;0.70;;;5.20;99.90;;;;;;5073943;28;20194;-78
2020/12/08 06:49:07;;;;;;;1.40;1.30;;;5.30;99.90;;;;;;5073968;28;20182;-79
2020/12/08 06:51:34;;;;;;;1.60;1.50;;;5.30;99.90;;;;;;5055952;28;20241;-78
2020/12/08 06:54:11;;;;;;;0.60;0.43;;;5.30;99.90;;;;;;5056384;28;20277;-78
2020/12/08 06:56:37;;;;;;;1.60;1.47;;;5.30;99.90;;;;;;5056367;28;20198;-78
2020/12/08 06:59:02;;;;;;;1.87;1.77;;;5.30;99.90;;;;;;5074342;28;20220;-78
2020/12/08 07:01:28;;;;;;;1.87;1.77;;;5.30;99.90;;;;;;5074398;28;20206;-79
2020/12/08 07:03:54;;;;;;;0.53;0.53;;;5.30;99.90;;;;;;5073885;28;20171;-78
2020/12/08 07:06:20;;;;;;;0.30;0.30;;;5.20;99.90;;;;;;5055469;28;20179;-79
2020/12/08 07:08:49;;;;;;;1.37;1.30;;;5.20;99.90;;;;;;5057538;28;20177;-78
2020/12/08 07:11:20;;;;;;;1.37;1.30;;;5.20;99.90;;;;;;5055961;28;20694;-78
2020/12/08 07:14:00;;;;;;;0.77;0.77;;;5.20;99.90;;;;;;5055576;28;20171;-78
2020/12/08 07:16:27;;;;;;;2.30;1.93;;;5.20;99.90;;;;;;5073543;28;20197;-78
2020/12/08 07:18:57;;;;;;;1.67;0.97;;;5.20;99.90;;;;;;5056215;28;20174;-78
2020/12/08 07:21:23;;;;;;;0.67;0.67;;;5.30;99.90;;;;;;5074963;28;20199;-77
2020/12/08 07:23:54;;;;;;;0.37;0.37;;;5.20;99.90;;;;;;5076522;28;20174;-78
2020/12/08 07:26:24;;;;;;;0.40;0.40;;;5.30;99.90;;;;;;5079218;28;20177;-77
2020/12/08 07:28:54;;;;;;;1.97;1.37;;;5.30;99.90;;;;;;5078173;28;20209;-78
2020/12/08 07:31:31;;;;;;;1.17;0.93;;;5.30;99.90;;;;;;5077409;28;20244;-79
2020/12/08 07:34:00;;;;;;;0.60;0.60;;;5.40;99.90;;;;;;5076666;28;20178;-79
2020/12/08 07:36:32;;;;;;;2.00;1.90;;;5.30;99.90;;;;;;5058388;28;20240;-79
2020/12/08 07:39:00;;;;;;;1.27;1.17;;;5.30;99.90;;;;;;5058695;28;20178;-80
2020/12/08 07:41:28;;;;;;;0.80;0.80;;;5.30;99.90;;;;;;5076077;28;20578;-78
2020/12/08 07:43:54;;;;;;;0.80;0.80;;;5.20;99.90;;;;;;5064034;28;20194;-79
2020/12/08 07:46:28;;;;;;;1.10;1.07;;;5.20;99.90;;;;;;5078065;28;20264;-78
2020/12/08 07:49:08;;;;;;;0.60;0.60;;;5.20;99.90;;;;;;5078032;28;20173;-78
2020/12/08 07:51:37;;;;;;;0.33;0.33;;;5.20;99.90;;;;;;5095886;28;20672;-81
2020/12/08 07:54:05;;;;;;;1.33;0.97;;;5.30;99.90;;;;;;5074333;28;20192;-80
2020/12/08 07:56:32;;;;;;;1.07;1.03;;;5.30;99.90;;;;;;5057547;28;20198;-84
2020/12/08 07:58:58;;;;;;;1.17;1.17;;;5.20;99.90;;;;;;5064845;28;20222;-83
2020/12/08 08:01:24;;;;;;;1.40;1.33;;;5.20;99.90;;;;;;5074357;28;20693;-83
2020/12/08 08:03:50;;;;;;;1.20;1.13;;;5.20;99.90;;;;;;5073591;28;20664;-80
2020/12/08 08:06:19;;;;;;;1.43;1.37;;;5.20;99.90;;;;;;5075361;28;20210;-79
2020/12/08 08:08:49;;;;;;;1.33;1.23;;;5.20;99.90;;;;;;5066638;28;20191;-80
2020/12/08 08:11:16;;;;;;;0.80;0.80;;;5.20;99.90;;;;;;5074065;28;20187;-82
2020/12/08 08:13:41;;;;;;;0.90;0.90;;;5.30;99.90;;;;;;5073923;28;20195;-81
2020/12/08 08:16:16;;;;;;;0.97;0.97;;;5.30;99.90;;;;;;5075235;28;20242;-82
2020/12/08 08:18:41;;;;;;;0.90;0.90;;;5.40;99.90;;;;;;5075704;28;20147;-79
2020/12/08 08:21:07;;;;;;;1.23;1.17;;;5.40;99.90;;;;;;5075654;28;20193;-85
2020/12/08 08:23:36;;;;;;;1.13;1.13;;;5.40;99.90;;;;;;5057306;28;20225;-80
2020/12/08 08:26:06;;;;;;;0.80;0.67;;;5.50;99.90;;;;;;5058566;28;20175;-80
2020/12/08 08:28:32;;;;;;;2.47;2.20;;;5.50;99.90;;;;;;5080769;28;20174;-77
2020/12/08 08:30:58;;;;;;;2.03;1.93;;;5.50;99.90;;;;;;5074158;28;20248;-78
2020/12/08 08:33:23;;;;;;;1.60;1.50;;;5.50;99.90;;;;;;5057018;28;20175;-78
2020/12/08 08:35:49;;;;;;;1.70;1.60;;;5.50;99.90;;;;;;5074848;28;20163;-78
2020/12/08 08:38:15;;;;;;;1.37;1.27;;;5.50;99.90;;;;;;5074924;28;20191;-78
2020/12/08 08:40:41;;;;;;;1.90;1.77;;;5.60;99.90;;;;;;5074963;28;20225;-78
2020/12/08 08:43:06;;;;;;;3.47;2.70;;;5.60;99.90;;;;;;5057170;28;20174;-78
2020/12/08 08:45:32;;;;;;;1.13;1.13;;;5.70;99.90;;;;;;5069154;28;20186;-82
2020/12/08 08:47:57;;;;;;;1.30;1.20;;;5.70;99.90;;;;;;5077688;28;20185;-82
2020/12/08 08:50:23;;;;;;;2.07;1.40;;;5.70;99.90;;;;;;5095601;28;20194;-81
2020/12/08 08:52:49;;;;;;;1.23;1.20;;;5.70;99.90;;;;;;5076860;28;20170;-81
2020/12/08 08:55:15;;;;;;;2.13;0.87;;;5.80;99.90;;;;;;5077019;28;20170;-81
2020/12/08 08:57:41;;;;;;;1.17;1.10;;;5.80;99.90;;;;;;5073476;28;20574;-80
2020/12/08 09:00:09;;;;;;;2.07;1.97;;;5.80;99.90;;;;;;5056665;28;20173;-80
2020/12/08 09:02:35;;;;;;;1.70;1.67;;;5.80;99.90;;;;;;5056587;28;20615;-77
2020/12/08 09:05:02;;;;;;;1.33;1.30;;;5.80;99.90;;;;;;5078730;28;20167;-77
2020/12/08 09:07:29;;;;;;;1.13;1.00;;;5.80;99.90;;;;;;5078335;28;20167;-77
2020/12/08 09:09:55;;;;;;;1.87;1.77;;;5.80;99.90;;;;;;5077650;28;20174;-78
2020/12/08 09:12:21;;;;;;;2.47;2.27;;;5.80;99.90;;;;;;5078646;28;20174;-77
2020/12/08 09:14:48;;;;;;;2.27;2.17;;;5.80;99.90;;;;;;5078196;28;20184;-77
2020/12/08 09:17:14;;;;;;;3.13;2.10;;;5.90;99.90;;;;;;5078070;28;20219;-78
2020/12/08 09:19:40;;;;;;;1.33;1.30;;;5.90;99.90;;;;;;5060046;28;20174;-77
2020/12/08 09:22:06;;;;;;;0.87;0.87;;;5.90;99.90;;;;;;5059355;28;20252;-78
2020/12/08 09:24:33;;;;;;;1.60;1.50;;;6.00;99.90;;;;;;5077502;28;20156;-78
2020/12/08 09:26:59;;;;;;;2.37;2.27;;;6.00;99.90;;;;;;5059659;28;20249;-77
2020/12/08 09:29:25;;;;;;;1.40;1.33;;;6.00;99.90;;;;;;5072974;28;20179;-78
2020/12/08 09:31:57;;;;;;;2.63;2.43;;;6.00;99.90;;;;;;5074730;28;20198;-77
2020/12/08 09:34:24;;;;;;;2.37;2.27;;;6.00;99.90;;;;;;5074019;28;20175;-77
2020/12/08 09:36:50;;;;;;;1.47;1.40;;;6.00;99.90;;;;;;5074941;28;20281;-77
2020/12/08 09:39:16;;;;;;;2.77;0.80;;;6.00;99.90;;;;;;5073308;28;20171;-77
2020/12/08 09:41:42;;;;;;;1.80;1.70;;;6.10;99.90;;;;;;5056131;28;20187;-78
2020/12/08 09:44:10;;;;;;;2.30;2.13;;;6.10;99.90;;;;;;5083625;28;20162;-77
2020/12/08 09:46:37;;;;;;;2.00;1.90;;;6.10;99.90;;;;;;5093646;28;20215;-78
2020/12/08 09:49:03;;;;;;;1.83;1.40;;;6.20;99.90;;;;;;5078057;28;20187;-78
2020/12/08 09:51:29;;;;;;;2.83;2.53;;;6.20;99.90;;;;;;5074057;28;20782;-77
2020/12/08 09:53:54;;;;;;;1.80;1.70;;;6.20;99.90;;;;;;5074122;28;20172;-77
2020/12/08 09:56:20;;;;;;;0.53;0.47;;;6.30;99.90;;;;;;5074614;28;20542;-78
2020/12/08 09:58:46;;;;;;;3.33;3.07;;;6.30;99.90;;;;;;5089456;28;20168;-78
2020/12/08 10:01:11;;;;;;;2.17;2.07;;;6.40;99.90;;;;;;5075774;28;20292;-77
2020/12/08 10:03:37;;;;;;;5.73;2.33;;;6.40;99.90;;;;;;5075952;28;20231;-78
2020/12/08 10:06:03;;;;;;;3.07;1.47;;;6.40;99.90;;;;;;5093996;28;20224;-77
2020/12/08 10:08:28;;;;;;;3.00;2.20;;;6.40;99.90;;;;;;5084752;28;20213;-77
2020/12/08 10:10:54;;;;;;;5.23;2.97;;;6.30;99.90;;;;;;5073892;28;20233;-78
2020/12/08 10:13:20;;;;;;;2.80;2.60;;;6.40;99.90;;;;;;5080747;28;20230;-78
2020/12/08 10:15:46;;;;;;;1.93;1.83;;;6.40;99.90;;;;;;5073610;28;20179;-79
2020/12/08 10:18:11;;;;;;;2.17;2.07;;;6.40;99.90;;;;;;5073205;28;20191;-81
2020/12/08 10:20:37;;;;;;;2.60;2.43;;;6.40;99.90;;;;;;5072855;28;20698;-78
2020/12/08 10:23:05;;;;;;;0.53;0.53;;;6.40;99.90;;;;;;5074206;28;20676;-78
2020/12/08 10:25:33;;;;;;;3.37;3.03;;;6.30;99.90;;;;;;5072870;28;20259;-78
2020/12/08 10:27:59;;;;;;;1.80;1.70;;;6.30;99.90;;;;;;5090622;28;20180;-79
2020/12/08 10:30:25;;;;;;;2.50;2.30;;;6.30;99.90;;;;;;5094449;28;20185;-78
2020/12/08 10:32:51;;;;;;;1.63;1.53;;;6.30;99.90;;;;;;5076600;28;20183;-78
2020/12/08 10:35:17;;;;;;;2.03;1.93;;;6.30;99.90;;;;;;5094522;28;20163;-78
2020/12/08 10:37:42;;;;;;;1.80;1.70;;;6.40;99.90;;;;;;5089323;28;20543;-78
2020/12/08 10:40:08;;;;;;;1.67;1.43;;;6.40;99.90;;;;;;5055881;28;20666;-78
2020/12/08 10:42:34;;;;;;;1.70;1.60;;;6.50;99.90;;;;;;5067688;28;20185;-79
2020/12/08 10:45:00;;;;;;;2.57;1.87;;;6.40;99.90;;;;;;5093798;28;20581;-78
2020/12/08 10:47:26;;;;;;;1.90;1.80;;;6.40;99.90;;;;;;5093754;28;20173;-78
2020/12/08 10:49:54;;;;;;;1.37;1.37;;;6.40;99.90;;;;;;5085276;28;20186;-78
2020/12/08 10:52:20;;;;;;;3.10;2.37;;;6.50;99.90;;;;;;5055023;28;20167;-78
2020/12/08 10:54:46;;;;;;;2.60;2.43;;;6.40;99.90;;;;;;5079634;28;20179;-79
2020/12/08 10:57:12;;;;;;;1.43;1.30;;;6.40;99.90;;;;;;5095355;28;20194;-77
2020/12/08 10:59:37;;;;;;;1.77;1.67;;;6.40;99.90;;;;;;5085250;28;20172;-78
2020/12/08 11:02:03;;;;;;;2.53;2.43;;;6.40;99.90;;;;;;5059044;28;20211;-78
2020/12/08 11:04:30;;;;;;;1.97;1.50;;;6.50;99.90;;;;;;5076973;28;20559;-78
2020/12/08 11:06:56;;;;;;;2.00;1.90;;;6.50;99.90;;;;;;5092571;28;20169;-78
2020/12/08 11:09:22;;;;;;;1.50;1.13;;;6.50;99.90;;;;;;5091450;28;20203;-80
2020/12/08 11:11:48;;;;;;;1.77;1.67;;;6.50;99.90;;;;;;5078653;28;20227;-81
2020/12/08 11:14:14;;;;;;;3.10;2.40;;;6.50;99.90;;;;;;5078808;28;20579;-79
2020/12/08 11:16:39;;;;;;;1.83;1.73;;;6.50;99.90;;;;;;5078938;28;20245;-81
2020/12/08 11:19:05;;;;;;;1.60;1.43;;;6.50;99.90;;;;;;5097669;28;20491;-81
2020/12/08 11:21:33;;;;;;;0.93;0.93;;;6.60;99.90;;;;;;5079198;28;20221;-77
2020/12/08 11:23:59;;;;;;;2.23;2.13;;;6.60;99.90;;;;;;5078509;28;20254;-79
2020/12/08 11:26:28;;;;;;;1.53;1.43;;;6.60;99.90;;;;;;5077408;28;20249;-80
2020/12/08 11:28:53;;;;;;;1.67;1.27;;;6.60;99.90;;;;;;5095211;28;20162;-80
2020/12/08 11:31:19;;;;;;;1.13;1.13;;;6.60;99.90;;;;;;5087250;28;20280;-79
2020/12/08 11:33:45;;;;;;;2.23;2.13;;;6.60;99.90;;;;;;5058059;28;20203;-79
2020/12/08 11:36:11;;;;;;;3.37;3.17;;;6.70;99.90;;;;;;5074612;28;20213;-80
2020/12/08 11:38:37;;;;;;;2.03;1.87;;;6.70;99.90;;;;;;5076051;28;20674;-76
2020/12/08 11:41:03;;;;;;;3.80;2.33;;;6.70;99.90;;;;;;5096624;28;20194;-77
2020/12/08 11:43:29;;;;;;;1.33;0.93;;;6.70;99.90;;;;;;5096683;28;20529;-76
2020/12/08 11:45:55;;;;;;;0.77;0.67;;;6.80;99.90;;;;;;5078423;28;20167;-77
2020/12/08 11:48:23;;;;;;;2.20;2.10;;;6.80;99.90;;;;;;5077825;28;20262;-77
2020/12/08 11:50:53;;;;;;;2.40;2.20;;;6.80;99.90;;;;;;5074829;28;20190;-77
2020/12/08 11:53:18;;;;;;;1.63;1.53;;;6.80;99.90;;;;;;5077709;28;20168;-77
2020/12/08 11:55:44;;;;;;;1.43;1.33;;;6.70;99.90;;;;;;5076030;28;20160;-77
2020/12/08 11:58:10;;;;;;;0.70;0.70;;;6.80;99.90;;;;;;5076485;28;20657;-77
2020/12/08 12:00:35;;;;;;;3.43;3.13;;;6.80;99.90;;;;;;5076216;28;20209;-77
2020/12/08 12:03:01;;;;;;;3.03;1.80;;;6.80;99.90;;;;;;5058758;28;20175;-77
2020/12/08 12:05:27;;;;;;;1.83;1.30;;;6.80;99.90;;;;;;5076195;28;20193;-77
2020/12/08 12:07:52;;;;;;;4.27;2.93;;;6.80;99.90;;;;;;5088609;28;20183;-80
2020/12/08 12:10:18;;;;;;;4.60;2.00;;;6.90;99.90;;;;;;5078092;28;20199;-79
2020/12/08 12:12:44;;;;;;;3.03;1.33;;;7.00;99.90;;;;;;5077742;28;20175;-80
2020/12/08 12:15:09;;;;;;;2.87;2.67;;;7.00;99.90;;;;;;5078090;28;20174;-77
2020/12/08 12:17:35;;;;;;;1.43;1.40;;;7.00;99.90;;;;;;5078154;28;20205;-81
2020/12/08 12:20:01;;;;;;;3.77;2.70;;;7.00;99.90;;;;;;5078115;28;20167;-78
2020/12/08 12:22:27;;;;;;;2.70;2.50;;;7.00;99.90;;;;;;5096383;28;20518;-79
2020/12/08 12:24:54;;;;;;;2.13;2.00;;;7.00;99.90;;;;;;5095760;28;20198;-79
2020/12/08 12:27:20;;;;;;;3.10;2.83;;;7.00;99.90;;;;;;5095886;28;20161;-81
2020/12/08 12:29:45;;;;;;;2.20;2.00;;;6.90;99.90;;;;;;5095757;28;20165;-82
2020/12/08 12:32:11;;;;;;;2.47;2.10;;;7.00;99.90;;;;;;5077430;28;20192;-80
2020/12/08 12:34:37;;;;;;;1.53;1.27;;;6.90;99.90;;;;;;5077241;28;20167;-80
2020/12/08 12:37:03;;;;;;;1.70;1.53;;;6.90;99.90;;;;;;5077015;28;20202;-81
2020/12/08 12:39:29;;;;;;;3.73;2.30;;;6.80;99.90;;;;;;5095539;28;20250;-80
2020/12/08 12:41:54;;;;;;;2.57;2.37;;;6.80;99.90;;;;;;5076978;28;20223;-80
2020/12/08 12:44:20;;;;;;;1.97;1.87;;;6.90;99.90;;;;;;5076992;28;20162;-80
2020/12/08 12:46:53;;;;;;;1.27;1.27;;;6.90;99.90;;;;;;5095439;28;20649;-79
2020/12/08 12:49:19;;;;;;;1.33;1.27;;;6.90;99.90;;;;;;5094850;28;20185;-79
2020/12/08 12:51:45;;;;;;;3.07;2.33;;;7.00;99.90;;;;;;5076533;28;20249;-79
2020/12/08 12:54:11;;;;;;;1.77;1.70;;;7.10;99.90;;;;;;5076557;28;20184;-79
2020/12/08 12:56:37;;;;;;;1.67;1.57;;;7.00;99.90;;;;;;5094670;28;20279;-79